»·PEaware :: N1AZ KLMT-KEUG

N1AZ :: KLMT-KEUG

FLIGHT INFORMATION

Flight Status: Arrived
Operator: Privately registered:
United States
More flights under this callsign
Pilot: Alex K. (14822)
Aircraft: ROCKWELL 500 SHRIKE COMMANDER
(AC50)
More flights by this aircraft type
Origin: KLMT Klamath Falls Intl
United States
Destination: KEUG Mahlon Sweet
United States
More flights between these airports :: More routes between these airports
Route: +MIXUP V452 JUXIB
File this flight plan on PilotEdge
Remarks: GO FIGHTING SIOUX
Altitude:
(Current/Filed)
10,000ft
Speed:
(Current/Filed)
160kts
Departed: 02-May-17 09:24 AM
Arrived: 02-May-17 10:20 AM
Distance/Time
Traveled:
134nm/0:56
Distance/Time
To Go:
Arrived

Flight Plot

Page will automatically refresh every two minutes.

Flight plan parsing failed; only flown route is shown


Map Options




Map Legend


Flown Route
Filed Route
Departure Airport
Arrival Airport
Navaid (VOR, NDB)
Fix

Horizontal Profiles

Position Reports

Time Latitude Longitude Heading Altitude Ground
Speed
02-May-17 09:15 42.167515 -121.742846 130 4091ft 0kts
02-May-17 09:16 42.167515 -121.742846 130 4091ft 0kts
02-May-17 09:17 42.167515 -121.742846 130 4091ft 0kts
02-May-17 09:18 42.167515 -121.742846 130 4091ft 0kts
02-May-17 09:19 42.167515 -121.742846 130 4091ft 0kts
02-May-17 09:20 42.166998 -121.742210 153 4091ft 10kts
02-May-17 09:21 42.163371 -121.741189 99 4091ft 14kts
02-May-17 09:22 42.160240 -121.738549 158 4091ft 14kts
02-May-17 09:23 42.156536 -121.736588 158 4091ft 14kts
02-May-17 09:24 42.152939 -121.734654 158 4091ft 13kts
02-May-17 09:25 42.152181 -121.731390 37 4091ft 12kts
02-May-17 09:26 42.171618 -121.742530 330 4804ft 103kts
02-May-17 09:27 42.198672 -121.763363 329 6131ft 111kts
02-May-17 09:28 42.224435 -121.784237 328 7492ft 108kts
02-May-17 09:29 42.249524 -121.805736 326 8721ft 108kts
02-May-17 09:30 42.274738 -121.828544 325 9848ft 111kts
02-May-17 09:31 42.299837 -121.852464 323 10912ft 112kts
02-May-17 09:32 42.322809 -121.875607 323 11960ft 106kts
02-May-17 09:33 42.352148 -121.906219 322 11969ft 150kts
02-May-17 09:34 42.384289 -121.940081 322 11966ft 145kts
02-May-17 09:35 42.414981 -121.974531 339 11965ft 143kts
02-May-17 09:36 42.454677 -121.979909 352 11966ft 144kts
02-May-17 09:37 42.494522 -121.983996 349 11966ft 144kts
02-May-17 09:38 42.530408 -122.006585 332 11966ft 142kts
02-May-17 09:39 42.565243 -122.031822 331 11966ft 142kts
02-May-17 09:40 42.599915 -122.057483 331 11966ft 142kts
02-May-17 09:41 42.634618 -122.083315 331 11965ft 142kts
02-May-17 09:42 42.669849 -122.109655 331 11964ft 154kts
02-May-17 09:43 42.709761 -122.139428 331 11968ft 170kts
02-May-17 09:44 42.751883 -122.170926 331 11967ft 175kts
02-May-17 09:45 42.794798 -122.203116 331 11968ft 177kts
02-May-17 09:46 42.836445 -122.234207 330 11963ft 165kts
02-May-17 09:47 42.875894 -122.264001 330 11964ft 160kts
02-May-17 09:48 42.914674 -122.293238 330 11964ft 159kts
02-May-17 09:49 42.953158 -122.322267 330 11963ft 158kts
02-May-17 09:50 42.991426 -122.351170 330 11963ft 158kts
02-May-17 09:51 43.029892 -122.380262 330 11963ft 158kts
02-May-17 09:52 43.068252 -122.409303 330 11963ft 158kts
02-May-17 09:53 43.106173 -122.438075 330 11966ft 158kts
02-May-17 09:54 43.144377 -122.467098 330 11967ft 159kts
02-May-17 09:55 43.182857 -122.496370 330 11966ft 159kts
02-May-17 09:56 43.221573 -122.525864 330 11966ft 159kts
02-May-17 09:57 43.260363 -122.555458 330 11966ft 159kts
02-May-17 09:58 43.299041 -122.585009 330 11966ft 159kts
02-May-17 09:59 43.337652 -122.614554 330 11966ft 159kts
02-May-17 10:00 43.376295 -122.644165 330 11965ft 159kts
02-May-17 10:01 43.414917 -122.673501 330 11733ft 167kts
02-May-17 10:02 43.455287 -122.704356 330 10998ft 167kts
02-May-17 10:03 43.495799 -122.735472 330 10276ft 167kts
02-May-17 10:04 43.537662 -122.767736 330 9603ft 176kts
02-May-17 10:05 43.580153 -122.800553 330 8956ft 176kts
02-May-17 10:06 43.622670 -122.833452 330 8318ft 176kts
02-May-17 10:07 43.665316 -122.866497 330 7692ft 176kts
02-May-17 10:08 43.707750 -122.899469 331 7079ft 176kts
02-May-17 10:09 43.750297 -122.932561 330 6473ft 175kts
02-May-17 10:10 43.771240 -122.994256 292 5860ft 181kts
02-May-17 10:11 43.786816 -123.060232 292 5267ft 179kts
02-May-17 10:12 43.804779 -123.120644 300 4693ft 161kts
02-May-17 10:13 43.823659 -123.174832 300 4182ft 155kts
02-May-17 10:14 43.859618 -123.198170 357 3541ft 164kts
02-May-17 10:15 43.905406 -123.199404 359 2896ft 164kts
02-May-17 10:16 43.946087 -123.200035 359 2568ft 138kts
02-May-17 10:17 43.982922 -123.200578 359 2283ft 127kts
02-May-17 10:18 44.019682 -123.201099 359 2182ft 140kts
02-May-17 10:19 44.052388 -123.202583 359 1475ft 97kts
02-May-17 10:20 44.076773 -123.203015 7 928ft 85kts
02-May-17 10:21 44.100325 -123.202395 0 740ft 85kts
02-May-17 10:22 44.121155 -123.202526 355 368ft 23kts
02-May-17 10:23 44.124605 -123.204162 359 365ft 21kts
02-May-17 10:24 44.125954 -123.208834 269 362ft 17kts
02-May-17 10:25 44.123510 -123.211822 210 364ft 15kts
02-May-17 10:26 44.120540 -123.215379 210 364ft 12kts
02-May-17 10:27 44.117702 -123.215330 131 367ft 7kts
02-May-17 10:28 44.117705 -123.214963 39 367ft 0kts

Navigation Log

Ident Type
Flight plan parsing failed, navigation log unavailable